sensor_id;sensor_type;location;lat;lon;timestamp;P1;durP1;ratioP1;P2;durP2;ratioP2
5965;SDS011;3009;43.224;27.976;2024-02-21T00:00:38;14.03;;;10.73;;
5965;SDS011;3009;43.224;27.976;2024-02-21T00:03:08;16.50;;;10.63;;
5965;SDS011;3009;43.224;27.976;2024-02-21T00:05:36;13.30;;;9.80;;
5965;SDS011;3009;43.224;27.976;2024-02-21T00:08:05;15.63;;;11.90;;
5965;SDS011;3009;43.224;27.976;2024-02-21T00:10:35;15.03;;;11.33;;
5965;SDS011;3009;43.224;27.976;2024-02-21T00:13:03;18.00;;;10.57;;
5965;SDS011;3009;43.224;27.976;2024-02-21T00:15:32;16.10;;;9.90;;
5965;SDS011;3009;43.224;27.976;2024-02-21T00:18:00;11.90;;;8.80;;
5965;SDS011;3009;43.224;27.976;2024-02-21T00:20:29;11.80;;;8.63;;
5965;SDS011;3009;43.224;27.976;2024-02-21T00:22:57;14.70;;;11.33;;
5965;SDS011;3009;43.224;27.976;2024-02-21T00:25:26;13.00;;;10.03;;
5965;SDS011;3009;43.224;27.976;2024-02-21T00:27:56;19.63;;;11.87;;
5965;SDS011;3009;43.224;27.976;2024-02-21T00:30:24;21.20;;;13.60;;
5965;SDS011;3009;43.224;27.976;2024-02-21T00:32:52;20.50;;;13.00;;
5965;SDS011;3009;43.224;27.976;2024-02-21T00:35:21;18.67;;;14.07;;
5965;SDS011;3009;43.224;27.976;2024-02-21T00:37:50;18.67;;;12.60;;
5965;SDS011;3009;43.224;27.976;2024-02-21T00:40:19;14.43;;;10.07;;
5965;SDS011;3009;43.224;27.976;2024-02-21T00:42:48;11.80;;;8.57;;
5965;SDS011;3009;43.224;27.976;2024-02-21T00:45:18;11.27;;;8.63;;
5965;SDS011;3009;43.224;27.976;2024-02-21T00:47:47;13.70;;;8.40;;
5965;SDS011;3009;43.224;27.976;2024-02-21T00:50:15;10.13;;;7.67;;
5965;SDS011;3009;43.224;27.976;2024-02-21T00:52:43;10.30;;;7.90;;
5965;SDS011;3009;43.224;27.976;2024-02-21T00:55:12;15.30;;;8.50;;
5965;SDS011;3009;43.224;27.976;2024-02-21T00:57:41;11.20;;;8.40;;
5965;SDS011;3009;43.224;27.976;2024-02-21T01:00:09;12.43;;;8.13;;
5965;SDS011;3009;43.224;27.976;2024-02-21T01:02:40;10.87;;;8.30;;
5965;SDS011;3009;43.224;27.976;2024-02-21T01:05:08;13.87;;;9.37;;
5965;SDS011;3009;43.224;27.976;2024-02-21T01:07:37;22.97;;;9.67;;
5965;SDS011;3009;43.224;27.976;2024-02-21T01:10:06;20.70;;;10.67;;
5965;SDS011;3009;43.224;27.976;2024-02-21T01:12:35;13.33;;;9.27;;
5965;SDS011;3009;43.224;27.976;2024-02-21T01:15:04;12.70;;;8.40;;
5965;SDS011;3009;43.224;27.976;2024-02-21T01:17:32;13.63;;;8.63;;
5965;SDS011;3009;43.224;27.976;2024-02-21T01:20:02;12.97;;;9.57;;
5965;SDS011;3009;43.224;27.976;2024-02-21T01:22:34;14.93;;;9.93;;
5965;SDS011;3009;43.224;27.976;2024-02-21T01:25:02;16.10;;;9.87;;
5965;SDS011;3009;43.224;27.976;2024-02-21T01:27:32;10.33;;;8.47;;
5965;SDS011;3009;43.224;27.976;2024-02-21T01:30:00;13.40;;;8.50;;
5965;SDS011;3009;43.224;27.976;2024-02-21T01:32:29;11.07;;;7.80;;
5965;SDS011;3009;43.224;27.976;2024-02-21T01:34:57;10.20;;;8.40;;
5965;SDS011;3009;43.224;27.976;2024-02-21T01:37:27;13.13;;;8.60;;
5965;SDS011;3009;43.224;27.976;2024-02-21T01:39:56;13.53;;;9.00;;
5965;SDS011;3009;43.224;27.976;2024-02-21T01:42:24;15.07;;;9.80;;
5965;SDS011;3009;43.224;27.976;2024-02-21T01:44:52;17.67;;;11.30;;
5965;SDS011;3009;43.224;27.976;2024-02-21T01:47:21;14.50;;;9.77;;
5965;SDS011;3009;43.224;27.976;2024-02-21T01:49:49;17.50;;;11.57;;
5965;SDS011;3009;43.224;27.976;2024-02-21T01:52:18;14.37;;;10.07;;
5965;SDS011;3009;43.224;27.976;2024-02-21T01:54:48;11.70;;;9.57;;
5965;SDS011;3009;43.224;27.976;2024-02-21T01:57:17;15.60;;;10.50;;
5965;SDS011;3009;43.224;27.976;2024-02-21T01:59:45;11.67;;;9.00;;
5965;SDS011;3009;43.224;27.976;2024-02-21T02:02:14;15.37;;;9.83;;
5965;SDS011;3009;43.224;27.976;2024-02-21T02:04:43;12.00;;;8.40;;
5965;SDS011;3009;43.224;27.976;2024-02-21T02:07:12;12.70;;;8.73;;
5965;SDS011;3009;43.224;27.976;2024-02-21T02:09:41;11.30;;;8.67;;
5965;SDS011;3009;43.224;27.976;2024-02-21T02:12:12;9.30;;;8.07;;
5965;SDS011;3009;43.224;27.976;2024-02-21T02:14:41;10.50;;;8.57;;
5965;SDS011;3009;43.224;27.976;2024-02-21T02:17:09;10.50;;;8.27;;
5965;SDS011;3009;43.224;27.976;2024-02-21T02:19:37;11.77;;;8.70;;
5965;SDS011;3009;43.224;27.976;2024-02-21T02:22:08;9.63;;;8.47;;
5965;SDS011;3009;43.224;27.976;2024-02-21T02:24:42;9.83;;;8.63;;
5965;SDS011;3009;43.224;27.976;2024-02-21T02:27:11;9.00;;;7.90;;
5965;SDS011;3009;43.224;27.976;2024-02-21T02:29:40;11.33;;;7.60;;
5965;SDS011;3009;43.224;27.976;2024-02-21T02:32:08;13.80;;;9.00;;
5965;SDS011;3009;43.224;27.976;2024-02-21T02:34:37;12.43;;;8.80;;
5965;SDS011;3009;43.224;27.976;2024-02-21T02:37:05;11.53;;;8.40;;
5965;SDS011;3009;43.224;27.976;2024-02-21T02:39:34;8.07;;;7.17;;
5965;SDS011;3009;43.224;27.976;2024-02-21T02:42:05;12.40;;;9.00;;
5965;SDS011;3009;43.224;27.976;2024-02-21T02:44:33;12.13;;;9.43;;
5965;SDS011;3009;43.224;27.976;2024-02-21T02:47:02;11.57;;;9.93;;
5965;SDS011;3009;43.224;27.976;2024-02-21T02:49:31;17.57;;;12.03;;
5965;SDS011;3009;43.224;27.976;2024-02-21T02:51:59;12.87;;;10.43;;
5965;SDS011;3009;43.224;27.976;2024-02-21T02:54:28;9.07;;;7.40;;
5965;SDS011;3009;43.224;27.976;2024-02-21T02:56:56;14.30;;;9.03;;
5965;SDS011;3009;43.224;27.976;2024-02-21T02:59:26;16.10;;;9.37;;
5965;SDS011;3009;43.224;27.976;2024-02-21T03:01:54;14.93;;;9.63;;
5965;SDS011;3009;43.224;27.976;2024-02-21T03:04:22;15.60;;;8.47;;
5965;SDS011;3009;43.224;27.976;2024-02-21T03:06:51;13.83;;;8.83;;
5965;SDS011;3009;43.224;27.976;2024-02-21T03:09:20;10.07;;;7.77;;
5965;SDS011;3009;43.224;27.976;2024-02-21T03:11:48;12.40;;;8.80;;
5965;SDS011;3009;43.224;27.976;2024-02-21T03:14:17;14.20;;;9.00;;
5965;SDS011;3009;43.224;27.976;2024-02-21T03:16:46;15.53;;;10.93;;
5965;SDS011;3009;43.224;27.976;2024-02-21T03:19:15;17.97;;;11.63;;
5965;SDS011;3009;43.224;27.976;2024-02-21T03:21:44;20.67;;;11.97;;
5965;SDS011;3009;43.224;27.976;2024-02-21T03:24:13;18.90;;;13.70;;
5965;SDS011;3009;43.224;27.976;2024-02-21T03:26:41;19.50;;;13.60;;
5965;SDS011;3009;43.224;27.976;2024-02-21T03:29:10;20.40;;;12.90;;
5965;SDS011;3009;43.224;27.976;2024-02-21T03:31:38;17.33;;;12.60;;
5965;SDS011;3009;43.224;27.976;2024-02-21T03:34:09;23.30;;;14.70;;
5965;SDS011;3009;43.224;27.976;2024-02-21T03:36:39;21.97;;;14.87;;
5965;SDS011;3009;43.224;27.976;2024-02-21T03:39:07;21.57;;;13.50;;
5965;SDS011;3009;43.224;27.976;2024-02-21T03:41:35;16.73;;;11.13;;
5965;SDS011;3009;43.224;27.976;2024-02-21T03:44:04;16.57;;;10.87;;
5965;SDS011;3009;43.224;27.976;2024-02-21T03:46:32;8.10;;;7.30;;
5965;SDS011;3009;43.224;27.976;2024-02-21T03:49:00;13.80;;;9.50;;
5965;SDS011;3009;43.224;27.976;2024-02-21T03:51:30;10.17;;;8.43;;
5965;SDS011;3009;43.224;27.976;2024-02-21T03:53:59;46.97;;;31.70;;
5965;SDS011;3009;43.224;27.976;2024-02-21T03:56:27;30.83;;;23.10;;
5965;SDS011;3009;43.224;27.976;2024-02-21T03:58:56;25.30;;;20.17;;
5965;SDS011;3009;43.224;27.976;2024-02-21T04:01:25;16.10;;;12.67;;
5965;SDS011;3009;43.224;27.976;2024-02-21T04:03:53;11.80;;;8.70;;
5965;SDS011;3009;43.224;27.976;2024-02-21T04:06:21;12.20;;;8.53;;
5965;SDS011;3009;43.224;27.976;2024-02-21T04:08:51;14.53;;;8.77;;
5965;SDS011;3009;43.224;27.976;2024-02-21T04:11:20;9.00;;;7.77;;
5965;SDS011;3009;43.224;27.976;2024-02-21T04:13:48;13.47;;;9.30;;
5965;SDS011;3009;43.224;27.976;2024-02-21T04:16:17;13.23;;;9.50;;
5965;SDS011;3009;43.224;27.976;2024-02-21T04:18:46;11.47;;;8.83;;
5965;SDS011;3009;43.224;27.976;2024-02-21T04:21:14;12.13;;;9.13;;
5965;SDS011;3009;43.224;27.976;2024-02-21T04:23:57;11.47;;;8.53;;
5965;SDS011;3009;43.224;27.976;2024-02-21T04:26:26;12.17;;;9.13;;
5965;SDS011;3009;43.224;27.976;2024-02-21T04:28:54;12.90;;;9.23;;
5965;SDS011;3009;43.224;27.976;2024-02-21T04:31:23;13.10;;;9.87;;
5965;SDS011;3009;43.224;27.976;2024-02-21T04:33:51;14.83;;;9.23;;
5965;SDS011;3009;43.224;27.976;2024-02-21T04:36:20;11.67;;;8.50;;
5965;SDS011;3009;43.224;27.976;2024-02-21T04:38:48;10.50;;;9.40;;
5965;SDS011;3009;43.224;27.976;2024-02-21T04:41:18;13.17;;;9.80;;
5965;SDS011;3009;43.224;27.976;2024-02-21T04:43:47;12.77;;;9.10;;
5965;SDS011;3009;43.224;27.976;2024-02-21T04:46:15;13.27;;;8.77;;
5965;SDS011;3009;43.224;27.976;2024-02-21T04:48:44;13.37;;;9.57;;
5965;SDS011;3009;43.224;27.976;2024-02-21T04:51:13;13.10;;;9.27;;
5965;SDS011;3009;43.224;27.976;2024-02-21T04:53:41;16.13;;;11.00;;
5965;SDS011;3009;43.224;27.976;2024-02-21T04:56:09;15.70;;;11.07;;
5965;SDS011;3009;43.224;27.976;2024-02-21T04:58:39;13.70;;;9.87;;
5965;SDS011;3009;43.224;27.976;2024-02-21T05:01:08;14.00;;;10.90;;
5965;SDS011;3009;43.224;27.976;2024-02-21T05:03:36;16.77;;;11.13;;
5965;SDS011;3009;43.224;27.976;2024-02-21T05:06:06;13.67;;;9.50;;
5965;SDS011;3009;43.224;27.976;2024-02-21T05:08:35;13.03;;;10.40;;
5965;SDS011;3009;43.224;27.976;2024-02-21T05:11:04;17.13;;;10.80;;
5965;SDS011;3009;43.224;27.976;2024-02-21T05:13:32;17.40;;;11.27;;
5965;SDS011;3009;43.224;27.976;2024-02-21T05:16:03;16.60;;;11.80;;
5965;SDS011;3009;43.224;27.976;2024-02-21T05:18:32;17.43;;;13.90;;
5965;SDS011;3009;43.224;27.976;2024-02-21T05:21:01;24.90;;;15.03;;
5965;SDS011;3009;43.224;27.976;2024-02-21T05:23:30;20.97;;;13.90;;
5965;SDS011;3009;43.224;27.976;2024-02-21T05:25:58;17.90;;;12.80;;
5965;SDS011;3009;43.224;27.976;2024-02-21T05:28:27;19.50;;;12.90;;
5965;SDS011;3009;43.224;27.976;2024-02-21T05:30:55;19.13;;;13.53;;
5965;SDS011;3009;43.224;27.976;2024-02-21T05:33:25;22.80;;;13.93;;
5965;SDS011;3009;43.224;27.976;2024-02-21T05:35:54;20.50;;;13.93;;
5965;SDS011;3009;43.224;27.976;2024-02-21T05:38:22;18.37;;;12.30;;
5965;SDS011;3009;43.224;27.976;2024-02-21T05:40:50;20.90;;;11.67;;
5965;SDS011;3009;43.224;27.976;2024-02-21T05:43:19;13.07;;;10.73;;
5965;SDS011;3009;43.224;27.976;2024-02-21T05:45:47;18.83;;;12.03;;
5965;SDS011;3009;43.224;27.976;2024-02-21T05:48:16;22.33;;;12.13;;
5965;SDS011;3009;43.224;27.976;2024-02-21T05:50:46;16.20;;;12.40;;
5965;SDS011;3009;43.224;27.976;2024-02-21T05:53:14;18.87;;;13.17;;
5965;SDS011;3009;43.224;27.976;2024-02-21T05:55:43;17.97;;;11.57;;
5965;SDS011;3009;43.224;27.976;2024-02-21T05:58:11;20.33;;;11.77;;
5965;SDS011;3009;43.224;27.976;2024-02-21T06:00:40;18.37;;;10.80;;
5965;SDS011;3009;43.224;27.976;2024-02-21T06:03:08;17.23;;;10.00;;
5965;SDS011;3009;43.224;27.976;2024-02-21T06:05:37;22.43;;;11.93;;
5965;SDS011;3009;43.224;27.976;2024-02-21T06:08:07;13.97;;;9.07;;
5965;SDS011;3009;43.224;27.976;2024-02-21T06:10:36;19.07;;;10.67;;
5965;SDS011;3009;43.224;27.976;2024-02-21T06:13:04;14.57;;;10.10;;
5965;SDS011;3009;43.224;27.976;2024-02-21T06:15:33;11.70;;;9.27;;
5965;SDS011;3009;43.224;27.976;2024-02-21T06:18:01;10.93;;;8.53;;
5965;SDS011;3009;43.224;27.976;2024-02-21T06:20:30;14.13;;;10.30;;
5965;SDS011;3009;43.224;27.976;2024-02-21T06:22:58;19.80;;;13.30;;
5965;SDS011;3009;43.224;27.976;2024-02-21T06:25:29;24.50;;;16.30;;
5965;SDS011;3009;43.224;27.976;2024-02-21T06:27:57;31.23;;;17.00;;
5965;SDS011;3009;43.224;27.976;2024-02-21T06:30:26;23.80;;;16.20;;
5965;SDS011;3009;43.224;27.976;2024-02-21T06:32:54;25.93;;;17.63;;
5965;SDS011;3009;43.224;27.976;2024-02-21T06:35:23;27.07;;;16.70;;
5965;SDS011;3009;43.224;27.976;2024-02-21T06:37:52;32.60;;;18.53;;
5965;SDS011;3009;43.224;27.976;2024-02-21T06:40:21;20.80;;;13.43;;
5965;SDS011;3009;43.224;27.976;2024-02-21T06:42:52;18.33;;;13.57;;
5965;SDS011;3009;43.224;27.976;2024-02-21T06:45:21;18.37;;;11.90;;
5965;SDS011;3009;43.224;27.976;2024-02-21T06:47:49;21.53;;;15.07;;
5965;SDS011;3009;43.224;27.976;2024-02-21T06:50:18;26.20;;;14.90;;
5965;SDS011;3009;43.224;27.976;2024-02-21T06:52:46;29.97;;;14.93;;
5965;SDS011;3009;43.224;27.976;2024-02-21T06:55:15;25.53;;;14.60;;
5965;SDS011;3009;43.224;27.976;2024-02-21T06:57:43;24.10;;;16.07;;
5965;SDS011;3009;43.224;27.976;2024-02-21T07:00:14;26.60;;;14.47;;
5965;SDS011;3009;43.224;27.976;2024-02-21T07:02:43;31.47;;;16.13;;
5965;SDS011;3009;43.224;27.976;2024-02-21T07:05:12;20.20;;;14.50;;
5965;SDS011;3009;43.224;27.976;2024-02-21T07:07:40;25.27;;;14.40;;
5965;SDS011;3009;43.224;27.976;2024-02-21T07:10:09;20.73;;;13.80;;
5965;SDS011;3009;43.224;27.976;2024-02-21T07:12:38;24.00;;;14.83;;
5965;SDS011;3009;43.224;27.976;2024-02-21T07:15:08;46.70;;;25.73;;
5965;SDS011;3009;43.224;27.976;2024-02-21T07:17:38;177.13;;;78.00;;
5965;SDS011;3009;43.224;27.976;2024-02-21T07:20:07;83.10;;;41.30;;
5965;SDS011;3009;43.224;27.976;2024-02-21T07:22:36;33.17;;;18.63;;
5965;SDS011;3009;43.224;27.976;2024-02-21T07:25:05;30.80;;;19.93;;
5965;SDS011;3009;43.224;27.976;2024-02-21T07:27:34;34.23;;;21.57;;
5965;SDS011;3009;43.224;27.976;2024-02-21T07:30:04;32.70;;;20.30;;
5965;SDS011;3009;43.224;27.976;2024-02-21T07:32:33;37.53;;;24.40;;
5965;SDS011;3009;43.224;27.976;2024-02-21T07:35:04;33.10;;;21.93;;
5965;SDS011;3009;43.224;27.976;2024-02-21T07:37:37;40.50;;;22.17;;
5965;SDS011;3009;43.224;27.976;2024-02-21T07:40:06;34.60;;;21.60;;
5965;SDS011;3009;43.224;27.976;2024-02-21T07:42:40;37.70;;;22.00;;
5965;SDS011;3009;43.224;27.976;2024-02-21T07:45:11;39.27;;;25.00;;
5965;SDS011;3009;43.224;27.976;2024-02-21T07:47:40;42.87;;;24.20;;
5965;SDS011;3009;43.224;27.976;2024-02-21T07:50:10;41.93;;;26.63;;
5965;SDS011;3009;43.224;27.976;2024-02-21T07:52:39;41.73;;;24.73;;
5965;SDS011;3009;43.224;27.976;2024-02-21T07:55:07;47.83;;;29.83;;
5965;SDS011;3009;43.224;27.976;2024-02-21T07:57:37;43.03;;;27.73;;
5965;SDS011;3009;43.224;27.976;2024-02-21T08:00:06;41.73;;;29.07;;
5965;SDS011;3009;43.224;27.976;2024-02-21T08:02:36;44.00;;;27.30;;
5965;SDS011;3009;43.224;27.976;2024-02-21T08:05:07;45.67;;;28.90;;
5965;SDS011;3009;43.224;27.976;2024-02-21T08:07:37;49.13;;;30.23;;
5965;SDS011;3009;43.224;27.976;2024-02-21T08:10:06;46.57;;;30.27;;
5965;SDS011;3009;43.224;27.976;2024-02-21T08:12:35;51.97;;;29.60;;
5965;SDS011;3009;43.224;27.976;2024-02-21T08:15:04;55.30;;;34.93;;
5965;SDS011;3009;43.224;27.976;2024-02-21T08:17:34;53.17;;;33.23;;
5965;SDS011;3009;43.224;27.976;2024-02-21T08:20:04;45.37;;;30.07;;
5965;SDS011;3009;43.224;27.976;2024-02-21T08:22:33;45.93;;;30.30;;
5965;SDS011;3009;43.224;27.976;2024-02-21T08:25:06;47.30;;;31.40;;
5965;SDS011;3009;43.224;27.976;2024-02-21T08:27:35;54.80;;;32.47;;
5965;SDS011;3009;43.224;27.976;2024-02-21T08:30:05;48.90;;;28.13;;
5965;SDS011;3009;43.224;27.976;2024-02-21T08:32:34;46.57;;;28.97;;
5965;SDS011;3009;43.224;27.976;2024-02-21T08:35:03;42.70;;;27.73;;
5965;SDS011;3009;43.224;27.976;2024-02-21T08:37:33;43.77;;;26.53;;
5965;SDS011;3009;43.224;27.976;2024-02-21T08:40:01;42.67;;;25.53;;
5965;SDS011;3009;43.224;27.976;2024-02-21T08:42:37;44.83;;;28.67;;
5965;SDS011;3009;43.224;27.976;2024-02-21T08:45:07;47.00;;;28.20;;
5965;SDS011;3009;43.224;27.976;2024-02-21T08:47:39;48.90;;;27.90;;
5965;SDS011;3009;43.224;27.976;2024-02-21T08:50:08;41.93;;;25.90;;
5965;SDS011;3009;43.224;27.976;2024-02-21T08:52:53;40.03;;;26.07;;
5965;SDS011;3009;43.224;27.976;2024-02-21T08:55:21;38.93;;;24.83;;
5965;SDS011;3009;43.224;27.976;2024-02-21T08:57:52;35.50;;;20.70;;
5965;SDS011;3009;43.224;27.976;2024-02-21T09:00:21;37.10;;;23.80;;
5965;SDS011;3009;43.224;27.976;2024-02-21T09:02:54;44.70;;;25.70;;
5965;SDS011;3009;43.224;27.976;2024-02-21T09:05:23;43.23;;;27.00;;
5965;SDS011;3009;43.224;27.976;2024-02-21T09:07:52;44.20;;;26.63;;
5965;SDS011;3009;43.224;27.976;2024-02-21T09:10:21;39.10;;;26.20;;
5965;SDS011;3009;43.224;27.976;2024-02-21T09:12:52;43.47;;;26.27;;
5965;SDS011;3009;43.224;27.976;2024-02-21T09:15:20;41.97;;;26.00;;
5965;SDS011;3009;43.224;27.976;2024-02-21T09:17:48;50.90;;;27.50;;
5965;SDS011;3009;43.224;27.976;2024-02-21T09:20:17;44.83;;;26.63;;
5965;SDS011;3009;43.224;27.976;2024-02-21T09:22:45;43.00;;;26.07;;
5965;SDS011;3009;43.224;27.976;2024-02-21T09:25:14;37.20;;;24.13;;
5965;SDS011;3009;43.224;27.976;2024-02-21T09:27:43;41.27;;;24.50;;
5965;SDS011;3009;43.224;27.976;2024-02-21T09:30:13;31.90;;;20.37;;
5965;SDS011;3009;43.224;27.976;2024-02-21T09:32:42;36.37;;;21.23;;
5965;SDS011;3009;43.224;27.976;2024-02-21T09:35:11;32.53;;;19.40;;
5965;SDS011;3009;43.224;27.976;2024-02-21T09:37:40;54.33;;;21.13;;
5965;SDS011;3009;43.224;27.976;2024-02-21T09:40:09;30.33;;;19.53;;
5965;SDS011;3009;43.224;27.976;2024-02-21T09:42:38;31.70;;;20.27;;
5965;SDS011;3009;43.224;27.976;2024-02-21T09:45:08;31.43;;;20.17;;
5965;SDS011;3009;43.224;27.976;2024-02-21T09:47:58;25.13;;;18.63;;
5965;SDS011;3009;43.224;27.976;2024-02-21T09:50:40;30.70;;;19.30;;
5965;SDS011;3009;43.224;27.976;2024-02-21T09:53:12;35.00;;;21.20;;
5965;SDS011;3009;43.224;27.976;2024-02-21T09:55:41;41.40;;;23.10;;
5965;SDS011;3009;43.224;27.976;2024-02-21T09:58:11;37.07;;;24.00;;
5965;SDS011;3009;43.224;27.976;2024-02-21T10:00:40;37.33;;;23.10;;
5965;SDS011;3009;43.224;27.976;2024-02-21T10:03:10;36.47;;;25.17;;
5965;SDS011;3009;43.224;27.976;2024-02-21T10:05:45;38.20;;;26.60;;
5965;SDS011;3009;43.224;27.976;2024-02-21T10:08:16;31.43;;;20.43;;
5965;SDS011;3009;43.224;27.976;2024-02-21T10:10:45;33.50;;;21.03;;
5965;SDS011;3009;43.224;27.976;2024-02-21T10:13:26;27.17;;;18.87;;
5965;SDS011;3009;43.224;27.976;2024-02-21T10:16:02;31.73;;;22.00;;
5965;SDS011;3009;43.224;27.976;2024-02-21T10:18:33;25.20;;;18.17;;
5965;SDS011;3009;43.224;27.976;2024-02-21T10:21:03;26.07;;;17.60;;
5965;SDS011;3009;43.224;27.976;2024-02-21T10:23:42;36.63;;;18.47;;
5965;SDS011;3009;43.224;27.976;2024-02-21T10:26:12;30.53;;;19.13;;
5965;SDS011;3009;43.224;27.976;2024-02-21T10:28:41;33.37;;;20.00;;
5965;SDS011;3009;43.224;27.976;2024-02-21T10:31:11;49.43;;;23.70;;
5965;SDS011;3009;43.224;27.976;2024-02-21T10:33:55;37.50;;;24.60;;
5965;SDS011;3009;43.224;27.976;2024-02-21T10:36:25;40.80;;;26.80;;
5965;SDS011;3009;43.224;27.976;2024-02-21T10:38:54;50.33;;;30.87;;
5965;SDS011;3009;43.224;27.976;2024-02-21T10:41:23;46.00;;;29.43;;
5965;SDS011;3009;43.224;27.976;2024-02-21T10:43:54;52.40;;;28.63;;
5965;SDS011;3009;43.224;27.976;2024-02-21T10:46:23;43.77;;;28.87;;
5965;SDS011;3009;43.224;27.976;2024-02-21T10:48:57;41.03;;;26.13;;
5965;SDS011;3009;43.224;27.976;2024-02-21T10:51:33;39.77;;;23.03;;
5965;SDS011;3009;43.224;27.976;2024-02-21T10:54:13;27.47;;;17.27;;
5965;SDS011;3009;43.224;27.976;2024-02-21T10:56:50;24.30;;;16.10;;
5965;SDS011;3009;43.224;27.976;2024-02-21T10:59:19;24.10;;;17.40;;
5965;SDS011;3009;43.224;27.976;2024-02-21T11:01:49;26.77;;;15.77;;
5965;SDS011;3009;43.224;27.976;2024-02-21T11:04:25;31.90;;;18.30;;
5965;SDS011;3009;43.224;27.976;2024-02-21T11:06:58;24.60;;;16.40;;
5965;SDS011;3009;43.224;27.976;2024-02-21T11:09:31;26.47;;;17.83;;
5965;SDS011;3009;43.224;27.976;2024-02-21T11:12:01;27.37;;;17.67;;
5965;SDS011;3009;43.224;27.976;2024-02-21T11:14:31;25.70;;;17.10;;
5965;SDS011;3009;43.224;27.976;2024-02-21T11:17:02;25.90;;;17.77;;
5965;SDS011;3009;43.224;27.976;2024-02-21T11:19:32;29.63;;;17.93;;
5965;SDS011;3009;43.224;27.976;2024-02-21T11:22:01;22.93;;;16.53;;
5965;SDS011;3009;43.224;27.976;2024-02-21T11:24:31;29.53;;;18.17;;
5965;SDS011;3009;43.224;27.976;2024-02-21T11:27:08;31.80;;;20.10;;
5965;SDS011;3009;43.224;27.976;2024-02-21T11:29:40;26.30;;;18.77;;
5965;SDS011;3009;43.224;27.976;2024-02-21T11:32:10;28.03;;;20.10;;
5965;SDS011;3009;43.224;27.976;2024-02-21T11:34:41;25.77;;;16.93;;
5965;SDS011;3009;43.224;27.976;2024-02-21T11:37:23;34.30;;;20.67;;
5965;SDS011;3009;43.224;27.976;2024-02-21T11:39:53;35.30;;;20.80;;
5965;SDS011;3009;43.224;27.976;2024-02-21T11:42:22;30.00;;;19.27;;
5965;SDS011;3009;43.224;27.976;2024-02-21T11:44:52;30.53;;;21.87;;
5965;SDS011;3009;43.224;27.976;2024-02-21T11:47:23;33.07;;;19.33;;
5965;SDS011;3009;43.224;27.976;2024-02-21T11:49:54;25.57;;;17.70;;
5965;SDS011;3009;43.224;27.976;2024-02-21T11:52:23;31.07;;;17.80;;
5965;SDS011;3009;43.224;27.976;2024-02-21T11:54:53;32.60;;;18.57;;
5965;SDS011;3009;43.224;27.976;2024-02-21T11:57:24;24.80;;;17.40;;
5965;SDS011;3009;43.224;27.976;2024-02-21T11:59:53;30.53;;;18.60;;
5965;SDS011;3009;43.224;27.976;2024-02-21T12:02:25;28.70;;;18.50;;
5965;SDS011;3009;43.224;27.976;2024-02-21T12:04:56;30.60;;;19.23;;
5965;SDS011;3009;43.224;27.976;2024-02-21T12:07:25;27.63;;;18.17;;
5965;SDS011;3009;43.224;27.976;2024-02-21T12:09:58;26.13;;;16.70;;
5965;SDS011;3009;43.224;27.976;2024-02-21T12:12:27;28.60;;;19.13;;
5965;SDS011;3009;43.224;27.976;2024-02-21T12:14:56;28.40;;;17.83;;
5965;SDS011;3009;43.224;27.976;2024-02-21T12:17:25;29.67;;;19.20;;
5965;SDS011;3009;43.224;27.976;2024-02-21T12:19:53;28.57;;;18.10;;
5965;SDS011;3009;43.224;27.976;2024-02-21T12:22:24;28.17;;;19.40;;
5965;SDS011;3009;43.224;27.976;2024-02-21T12:24:53;24.80;;;17.97;;
5965;SDS011;3009;43.224;27.976;2024-02-21T12:27:21;27.20;;;16.63;;
5965;SDS011;3009;43.224;27.976;2024-02-21T12:29:50;24.27;;;16.43;;
5965;SDS011;3009;43.224;27.976;2024-02-21T12:32:18;25.63;;;16.80;;
5965;SDS011;3009;43.224;27.976;2024-02-21T12:34:47;25.40;;;17.77;;
5965;SDS011;3009;43.224;27.976;2024-02-21T12:37:23;28.33;;;19.63;;
5965;SDS011;3009;43.224;27.976;2024-02-21T12:39:52;27.43;;;18.70;;
5965;SDS011;3009;43.224;27.976;2024-02-21T12:42:20;27.37;;;18.40;;
5965;SDS011;3009;43.224;27.976;2024-02-21T12:44:50;31.00;;;18.27;;
5965;SDS011;3009;43.224;27.976;2024-02-21T12:47:19;26.57;;;18.50;;
5965;SDS011;3009;43.224;27.976;2024-02-21T12:49:50;29.33;;;19.87;;
5965;SDS011;3009;43.224;27.976;2024-02-21T12:52:18;31.10;;;19.67;;
5965;SDS011;3009;43.224;27.976;2024-02-21T12:54:48;33.70;;;20.60;;
5965;SDS011;3009;43.224;27.976;2024-02-21T12:57:18;29.00;;;20.10;;
5965;SDS011;3009;43.224;27.976;2024-02-21T12:59:49;34.40;;;19.60;;
5965;SDS011;3009;43.224;27.976;2024-02-21T13:02:17;28.37;;;19.63;;
5965;SDS011;3009;43.224;27.976;2024-02-21T13:04:46;30.87;;;19.70;;
5965;SDS011;3009;43.224;27.976;2024-02-21T13:07:15;33.73;;;19.53;;
5965;SDS011;3009;43.224;27.976;2024-02-21T13:09:43;26.90;;;17.87;;
5965;SDS011;3009;43.224;27.976;2024-02-21T13:12:13;26.90;;;16.77;;
5965;SDS011;3009;43.224;27.976;2024-02-21T13:14:42;32.57;;;18.60;;
5965;SDS011;3009;43.224;27.976;2024-02-21T13:17:11;32.13;;;19.70;;
5965;SDS011;3009;43.224;27.976;2024-02-21T13:19:41;39.40;;;23.70;;
5965;SDS011;3009;43.224;27.976;2024-02-21T13:22:11;34.60;;;23.60;;
5965;SDS011;3009;43.224;27.976;2024-02-21T13:24:51;33.10;;;21.87;;
5965;SDS011;3009;43.224;27.976;2024-02-21T13:27:24;40.00;;;24.07;;
5965;SDS011;3009;43.224;27.976;2024-02-21T13:30:04;31.00;;;19.13;;
5965;SDS011;3009;43.224;27.976;2024-02-21T13:32:35;38.93;;;22.70;;
5965;SDS011;3009;43.224;27.976;2024-02-21T13:35:04;41.73;;;26.00;;
5965;SDS011;3009;43.224;27.976;2024-02-21T13:37:32;37.40;;;19.63;;
5965;SDS011;3009;43.224;27.976;2024-02-21T13:40:02;35.87;;;22.70;;
5965;SDS011;3009;43.224;27.976;2024-02-21T13:42:31;35.97;;;21.23;;
5965;SDS011;3009;43.224;27.976;2024-02-21T13:45:00;34.90;;;20.10;;
5965;SDS011;3009;43.224;27.976;2024-02-21T13:47:29;31.70;;;18.57;;
5965;SDS011;3009;43.224;27.976;2024-02-21T13:49:58;28.87;;;17.80;;
5965;SDS011;3009;43.224;27.976;2024-02-21T13:52:26;52.57;;;24.80;;
5965;SDS011;3009;43.224;27.976;2024-02-21T13:54:55;42.33;;;20.80;;
5965;SDS011;3009;43.224;27.976;2024-02-21T13:57:25;41.23;;;21.43;;
5965;SDS011;3009;43.224;27.976;2024-02-21T13:59:53;24.23;;;15.30;;
5965;SDS011;3009;43.224;27.976;2024-02-21T14:02:21;25.90;;;14.90;;
5965;SDS011;3009;43.224;27.976;2024-02-21T14:04:50;24.73;;;16.20;;
5965;SDS011;3009;43.224;27.976;2024-02-21T14:07:19;25.13;;;17.40;;
5965;SDS011;3009;43.224;27.976;2024-02-21T14:09:47;28.33;;;16.70;;
5965;SDS011;3009;43.224;27.976;2024-02-21T14:12:15;33.70;;;15.90;;
5965;SDS011;3009;43.224;27.976;2024-02-21T14:14:48;28.97;;;16.77;;
5965;SDS011;3009;43.224;27.976;2024-02-21T14:17:17;21.87;;;14.60;;
5965;SDS011;3009;43.224;27.976;2024-02-21T14:19:45;22.47;;;14.90;;
5965;SDS011;3009;43.224;27.976;2024-02-21T14:22:14;22.80;;;15.30;;
5965;SDS011;3009;43.224;27.976;2024-02-21T14:24:42;25.13;;;15.33;;
5965;SDS011;3009;43.224;27.976;2024-02-21T14:27:11;20.27;;;14.10;;
5965;SDS011;3009;43.224;27.976;2024-02-21T14:29:40;31.60;;;16.03;;
5965;SDS011;3009;43.224;27.976;2024-02-21T14:32:09;26.40;;;15.37;;
5965;SDS011;3009;43.224;27.976;2024-02-21T14:34:40;23.67;;;15.60;;
5965;SDS011;3009;43.224;27.976;2024-02-21T14:37:09;26.93;;;15.70;;
5965;SDS011;3009;43.224;27.976;2024-02-21T14:39:37;24.10;;;16.53;;
5965;SDS011;3009;43.224;27.976;2024-02-21T14:42:06;29.70;;;18.00;;
5965;SDS011;3009;43.224;27.976;2024-02-21T14:44:36;36.40;;;16.50;;
5965;SDS011;3009;43.224;27.976;2024-02-21T14:47:04;28.80;;;16.53;;
5965;SDS011;3009;43.224;27.976;2024-02-21T14:49:34;30.70;;;18.40;;
5965;SDS011;3009;43.224;27.976;2024-02-21T14:52:03;29.50;;;17.63;;